Time;durP1;ratioP1;P1;durP2;ratioP2;P2;SDS_P1;SDS_P2;PMS_P1;PMS_P2;Temp;Humidity;BMP_temperature;BMP_pressure;BME280_temperature;BME280_humidity;BME280_pressure;Samples;Min_cycle;Max_cycle;Signal;HPM_P1;HPM_P2
2021/03/15 00:00:25;;;;;;;37.53;18.73;;;;;;;5.14;75.48;99491.45;1610806;89;21463;-64
2021/03/15 00:02:53;;;;;;;33.33;17.20;;;;;;;5.13;75.42;99488.41;1610688;89;21424;-65
2021/03/15 00:05:21;;;;;;;35.78;16.97;;;;;;;5.14;75.39;99489.25;1610831;88;21464;-65
2021/03/15 00:07:48;;;;;;;31.17;16.70;;;;;;;5.15;75.42;99490.95;1610781;89;22020;-66
2021/03/15 00:10:17;;;;;;;31.62;16.48;;;;;;;5.16;75.44;99493.47;1610696;89;21249;-64
2021/03/15 00:12:45;;;;;;;32.67;17.30;;;;;;;5.18;75.42;99493.28;1612167;88;21201;-63
2021/03/15 00:15:17;;;;;;;31.55;16.70;;;;;;;5.19;75.41;99488.19;1602234;89;21238;-64
2021/03/15 00:17:44;;;;;;;31.35;16.85;;;;;;;5.18;75.30;99494.12;1602333;89;21473;-64
2021/03/15 00:20:16;;;;;;;29.72;15.28;;;;;;;5.16;75.27;99489.41;1631540;88;21237;-63
2021/03/15 00:22:46;;;;;;;30.88;16.50;;;;;;;5.16;75.26;99487.20;1631327;88;21174;-65
2021/03/15 00:25:14;;;;;;;29.92;15.98;;;;;;;5.19;75.23;99488.19;1602306;89;21210;-64
2021/03/15 00:27:42;;;;;;;29.75;16.65;;;;;;;5.22;75.14;99489.20;1631347;88;21202;-65
2021/03/15 00:30:14;;;;;;;28.02;15.15;;;;;;;5.23;75.06;99497.68;1602307;89;21195;-65
2021/03/15 00:32:42;;;;;;;28.83;15.95;;;;;;;5.22;75.01;99484.62;1602487;89;21877;-65
2021/03/15 00:35:13;;;;;;;31.93;15.70;;;;;;;5.23;74.98;99488.17;1602559;88;21159;-64
2021/03/15 00:37:41;;;;;;;30.70;15.50;;;;;;;5.21;74.92;99487.52;1631406;88;21559;-64
2021/03/15 00:40:12;;;;;;;28.00;15.10;;;;;;;5.19;74.93;99489.03;1606038;88;21297;-64
2021/03/15 00:42:42;;;;;;;27.13;14.75;;;;;;;5.19;74.96;99484.95;1624287;88;21313;-63
2021/03/15 00:45:11;;;;;;;26.62;14.80;;;;;;;5.20;74.96;99486.67;1624338;88;21211;-64
2021/03/15 00:47:39;;;;;;;33.78;17.00;;;;;;;5.24;75.00;99494.78;1624276;88;21205;-63
2021/03/15 00:50:29;;;;;;;31.85;16.55;;;;;;;5.25;74.96;99490.19;1624332;88;21186;-64
2021/03/15 00:52:57;;;;;;;34.10;17.57;;;;;;;5.25;74.96;99493.75;1624417;88;21187;-65
2021/03/15 00:55:24;;;;;;;29.77;14.47;;;;;;;5.27;74.91;99495.77;1627243;87;21574;-66
2021/03/15 00:57:53;;;;;;;31.42;15.93;;;;;;;5.29;74.82;99487.44;1624336;88;21201;-63
2021/03/15 01:00:25;;;;;;;31.45;16.23;;;;;;;5.27;74.76;99495.77;1624235;88;21397;-64
2021/03/15 01:02:58;;;;;;;31.73;16.90;;;;;;;5.28;74.80;99489.30;1624743;88;21389;-63
2021/03/15 01:05:32;;;;;;;32.38;16.40;;;;;;;5.30;74.80;99486.41;1624439;88;21425;-64
2021/03/15 01:07:59;;;;;;;30.52;16.65;;;;;;;5.32;74.80;99489.78;1624445;88;21222;-64
2021/03/15 01:10:28;;;;;;;33.75;17.92;;;;;;;5.31;74.80;99478.06;1624477;88;21159;-64
2021/03/15 01:12:55;;;;;;;29.30;16.12;;;;;;;5.34;74.77;99479.05;1620519;88;21628;-65
2021/03/15 01:15:24;;;;;;;32.10;16.48;;;;;;;5.35;74.68;99474.47;1584084;89;21217;-64
2021/03/15 01:17:53;;;;;;;36.80;18.27;;;;;;;5.33;74.66;99472.45;1584280;89;21208;-65
2021/03/15 01:20:21;;;;;;;35.10;18.82;;;;;;;5.32;74.69;99461.26;1584158;90;21208;-63
2021/03/15 01:22:48;;;;;;;35.40;18.35;;;;;;;5.31;74.69;99467.20;1584222;89;21522;-64
2021/03/15 01:25:16;;;;;;;35.78;18.65;;;;;;;5.28;74.77;99463.50;1584220;90;21180;-63
2021/03/15 01:27:43;;;;;;;33.30;17.75;;;;;;;5.25;74.84;99461.16;1584203;89;21161;-63
2021/03/15 01:30:14;;;;;;;34.55;16.75;;;;;;;5.24;74.89;99460.83;1584166;90;21295;-63
2021/03/15 01:32:41;;;;;;;33.98;17.85;;;;;;;5.23;74.89;99455.59;1584196;90;21384;-62
2021/03/15 01:35:09;;;;;;;33.15;17.62;;;;;;;5.22;74.92;99450.67;1584263;89;21343;-63
2021/03/15 01:37:37;;;;;;;30.97;17.00;;;;;;;5.23;75.04;99445.57;1584259;90;21449;-64
2021/03/15 01:40:06;;;;;;;31.25;17.45;;;;;;;5.25;75.06;99447.58;1584378;89;21211;-64
2021/03/15 01:42:33;;;;;;;32.93;17.73;;;;;;;5.23;75.04;99449.64;1584285;89;21348;-64
2021/03/15 01:45:01;;;;;;;30.90;17.10;;;;;;;5.21;75.11;99444.07;1584230;89;21375;-64
2021/03/15 01:47:28;;;;;;;35.43;17.02;;;;;;;5.19;75.15;99446.94;1584186;90;21476;-65
2021/03/15 01:49:57;;;;;;;43.50;21.23;;;;;;;5.19;75.22;99457.80;1588460;89;21198;-64
2021/03/15 01:52:25;;;;;;;35.05;17.80;;;;;;;5.18;75.19;99458.83;1588430;90;21169;-64
2021/03/15 01:54:52;;;;;;;32.40;17.02;;;;;;;5.18;75.21;99462.91;1588472;89;21166;-64
2021/03/15 01:57:20;;;;;;;33.38;18.20;;;;;;;5.16;75.32;99463.60;1606509;89;21562;-65
2021/03/15 01:59:47;;;;;;;35.78;18.77;;;;;;;5.16;75.40;99464.96;1607331;88;21206;-64
2021/03/15 02:02:15;;;;;;;36.98;19.57;;;;;;;5.15;75.47;99464.64;1607370;89;21572;-64
2021/03/15 02:04:42;;;;;;;38.10;18.73;;;;;;;5.17;75.59;99478.02;1607401;88;21609;-63
2021/03/15 02:07:12;;;;;;;38.35;18.55;;;;;;;5.19;75.49;99468.66;1604388;89;21163;-63
2021/03/15 02:09:39;;;;;;;36.10;18.98;;;;;;;5.22;75.39;99466.97;1613189;88;21226;-64
2021/03/15 02:12:21;;;;;;;35.10;18.20;;;;;;;5.23;75.22;99471.37;1634726;86;21151;-65
2021/03/15 02:15:27;;;;;;;36.93;18.65;;;;;;;5.19;75.23;99468.66;1648957;85;21135;-63
2021/03/15 02:18:42;;;;;;;37.38;19.23;;;;;;;5.19;75.21;99474.09;1657729;86;21167;-63
2021/03/15 02:21:35;;;;;;;31.12;16.48;;;;;;;5.18;75.24;99479.20;1625780;88;21586;-63
2021/03/15 02:24:19;;;;;;;35.83;18.40;;;;;;;5.17;75.14;99486.17;1625782;87;21154;-65
2021/03/15 02:27:39;;;;;;;37.53;17.37;;;;;;;5.13;75.11;99488.93;1657733;86;21203;-64
2021/03/15 02:30:53;;;;;;;35.13;18.27;;;;;;;5.14;75.13;99499.61;1657855;86;21199;-64
2021/03/15 02:33:43;;;;;;;34.88;18.25;;;;;;;5.13;75.04;99491.13;1640968;86;21219;-65
2021/03/15 02:36:11;;;;;;;36.50;18.87;;;;;;;5.09;75.32;99486.58;1690839;85;21127;-65
2021/03/15 02:38:40;;;;;;;37.65;18.80;;;;;;;5.09;75.41;99490.66;1690799;85;21159;-63
2021/03/15 02:41:07;;;;;;;37.42;19.23;;;;;;;5.09;75.46;99485.73;1690808;85;21135;-63
2021/03/15 02:43:47;;;;;;;37.23;17.87;;;;;;;5.05;75.57;99476.28;1663759;85;21123;-63
2021/03/15 02:46:20;;;;;;;42.78;19.37;;;;;;;5.04;75.65;99473.23;1690901;85;21130;-63
2021/03/15 02:48:51;;;;;;;42.80;19.90;;;;;;;5.04;75.68;99467.80;1690975;85;21151;-65
2021/03/15 02:51:22;;;;;;;38.88;19.32;;;;;;;5.04;75.75;99467.80;1663727;85;21147;-66
2021/03/15 02:53:49;;;;;;;44.10;20.55;;;;;;;5.04;75.83;99463.73;1663901;85;21142;-65
2021/03/15 07:32:01;;;;;;;68.75;31.23;;;;;;;6.59;76.37;99541.05;1725396;80;29209;-64
2021/03/15 07:34:29;;;;;;;67.50;30.55;;;;;;;6.60;76.07;99539.17;1692665;84;21154;-64
2021/03/15 07:36:58;;;;;;;67.17;31.23;;;;;;;6.62;75.84;99542.55;1723165;82;21160;-64
2021/03/15 07:39:31;;;;;;;75.00;33.25;;;;;;;6.61;75.69;99543.58;1692717;84;21429;-64
2021/03/15 07:42:01;;;;;;;72.05;31.70;;;;;;;6.61;75.59;99538.98;1697421;84;21928;-63
2021/03/15 07:44:33;;;;;;;81.75;32.70;;;;;;;6.60;75.40;99549.55;1723119;83;21163;-65
2021/03/15 07:47:04;;;;;;;75.05;33.02;;;;;;;6.58;75.22;99550.77;1723222;83;21229;-65
2021/03/15 07:49:39;;;;;;;83.25;35.68;;;;;;;6.57;75.27;99552.65;1714715;83;21190;-62
2021/03/15 07:52:12;;;;;;;89.50;37.95;;;;;;;6.55;75.22;99559.33;1708901;83;21159;-65
2021/03/15 07:54:42;;;;;;;89.77;37.03;;;;;;;6.54;75.31;99557.12;1708597;83;21433;-64
2021/03/15 07:57:17;;;;;;;91.12;34.73;;;;;;;6.57;75.40;99554.02;1709323;83;21525;-64
2021/03/15 07:59:49;;;;;;;95.92;39.58;;;;;;;6.57;75.26;99556.73;1700848;83;21434;-65
2021/03/15 08:02:23;;;;;;;101.22;39.05;;;;;;;6.51;75.14;99558.86;1722184;82;21286;-65
2021/03/15 08:04:52;;;;;;;98.00;38.92;;;;;;;6.41;75.27;99561.02;1714568;82;21199;-65
2021/03/15 08:07:21;;;;;;;89.15;37.00;;;;;;;6.35;75.42;99550.91;1714060;82;21187;-63
2021/03/15 08:09:51;;;;;;;93.52;37.00;;;;;;;6.34;75.59;99549.22;1722144;82;21368;-63
2021/03/15 08:12:21;;;;;;;90.87;35.20;;;;;;;6.34;75.71;99545.14;1701896;83;21323;-64
2021/03/15 08:14:49;;;;;;;88.70;34.33;;;;;;;6.39;75.86;99544.56;1705293;83;21176;-65
2021/03/15 08:17:18;;;;;;;86.37;35.20;;;;;;;6.45;75.82;99548.72;1705006;84;21204;-65
2021/03/15 08:19:47;;;;;;;79.30;34.55;;;;;;;6.51;75.77;99545.26;1725582;83;21368;-66
2021/03/15 08:22:23;;;;;;;88.22;37.75;;;;;;;6.53;75.60;99554.08;1698866;84;21185;-65
2021/03/15 08:24:53;;;;;;;91.47;38.23;;;;;;;6.53;75.54;99549.98;1727691;83;21454;-65
2021/03/15 08:27:21;;;;;;;82.02;31.60;;;;;;;6.50;75.52;99552.22;1698875;83;21236;-65
2021/03/15 08:29:48;;;;;;;84.52;33.95;;;;;;;6.48;75.55;99558.37;1727803;83;21932;-64
2021/03/15 08:32:16;;;;;;;78.83;33.73;;;;;;;6.45;75.57;99555.52;1687680;83;21330;-65
2021/03/15 08:34:43;;;;;;;70.42;29.15;;;;;;;6.45;75.56;99558.76;1712134;83;21583;-65
2021/03/15 08:37:11;;;;;;;71.05;30.32;;;;;;;6.40;75.62;99564.77;1712243;83;21396;-65
2021/03/15 08:39:42;;;;;;;68.37;29.52;;;;;;;6.35;75.66;99557.70;1712610;83;21189;-64
2021/03/15 08:42:20;;;;;;;64.95;27.07;;;;;;;6.30;75.79;99554.72;1713569;83;21142;-65
2021/03/15 08:44:49;;;;;;;71.77;28.70;;;;;;;6.26;75.86;99550.17;1711353;83;21166;-64
2021/03/15 08:47:50;;;;;;;59.25;25.68;;;;;;;6.24;76.03;99551.40;1714786;83;21301;-65
2021/03/15 08:50:39;;;;;;;65.12;28.83;;;;;;;6.27;76.07;99546.42;1714777;83;21138;-65
2021/03/15 08:53:06;;;;;;;61.85;28.12;;;;;;;6.28;76.09;99547.27;1694561;83;21328;-64
2021/03/15 08:55:46;;;;;;;61.58;29.02;;;;;;;6.29;76.30;99547.59;1683328;83;21355;-63
2021/03/15 08:58:38;;;;;;;63.52;27.05;;;;;;;6.36;76.30;99562.11;1679961;84;21445;-64
2021/03/15 09:01:08;;;;;;;53.92;23.65;;;;;;;6.40;76.16;99561.21;1687305;83;21610;-65
2021/03/15 09:03:52;;;;;;;64.00;26.50;;;;;;;6.39;76.07;99558.16;1687658;84;22034;-65
2021/03/15 09:06:36;;;;;;;63.52;28.12;;;;;;;6.36;76.13;99563.47;1693400;83;21932;-65
2021/03/15 09:09:31;;;;;;;58.83;26.65;;;;;;;6.36;76.34;99562.11;1692926;83;21153;-65
2021/03/15 09:12:01;;;;;;;58.42;25.35;;;;;;;6.38;76.39;99562.77;1690742;83;21445;-63
2021/03/15 09:14:35;;;;;;;68.10;27.40;;;;;;;6.36;76.33;99561.59;1690259;83;21209;-64
2021/03/15 09:17:20;;;;;;;60.73;24.60;;;;;;;6.31;76.37;99550.95;1685107;83;21352;-65
2021/03/15 09:19:50;;;;;;;59.58;27.60;;;;;;;6.29;76.59;99547.59;1686746;83;21429;-66
2021/03/15 09:22:28;;;;;;;63.17;26.10;;;;;;;6.33;76.73;99549.73;1689162;83;21220;-66
2021/03/15 09:25:01;;;;;;;63.30;28.65;;;;;;;6.37;76.79;99547.47;1692936;83;21328;-65
2021/03/15 09:27:42;;;;;;;61.98;27.25;;;;;;;6.40;76.87;99545.73;1697127;83;21399;-63
2021/03/15 09:30:30;;;;;;;65.42;29.75;;;;;;;6.43;76.85;99543.98;1694921;83;21822;-65
2021/03/15 09:32:57;;;;;;;63.23;25.05;;;;;;;6.45;76.91;99547.36;1683197;84;21128;-65
2021/03/15 09:35:39;;;;;;;53.63;23.85;;;;;;;6.54;76.98;99553.55;1691028;83;21261;-64
2021/03/15 09:38:11;;;;;;;75.08;31.12;;;;;;;6.59;76.88;99556.02;1693296;84;21379;-65
2021/03/15 09:40:49;;;;;;;64.27;28.02;;;;;;;6.68;77.06;99552.14;1691364;83;21444;-61
2021/03/15 09:43:29;;;;;;;63.25;26.40;;;;;;;6.78;77.08;99552.34;1690518;84;21223;-62
2021/03/15 09:46:02;;;;;;;59.90;26.42;;;;;;;6.86;77.00;99550.84;1688332;83;21923;-61
2021/03/15 09:48:33;;;;;;;65.90;26.12;;;;;;;6.90;76.81;99553.50;1689221;84;21260;-65
2021/03/15 09:51:03;;;;;;;77.78;29.35;;;;;;;6.93;76.83;99551.23;1696477;84;21836;-63
2021/03/15 09:53:36;;;;;;;79.45;32.67;;;;;;;6.97;76.77;99552.53;1676942;84;21236;-63
2021/03/15 09:56:07;;;;;;;84.30;32.23;;;;;;;7.00;76.68;99553.50;1686226;84;21475;-63
2021/03/15 09:58:38;;;;;;;85.17;35.70;;;;;;;7.00;76.72;99549.94;1671383;85;21299;-62
2021/03/15 10:01:19;;;;;;;88.85;33.58;;;;;;;7.02;76.89;99553.31;1671797;84;21506;-62
2021/03/15 10:04:01;;;;;;;78.28;31.82;;;;;;;7.04;76.93;99547.14;1683499;84;21339;-66
2021/03/15 10:06:38;;;;;;;82.72;31.45;;;;;;;7.06;76.80;99548.31;1654062;85;21214;-62
2021/03/15 10:09:26;;;;;;;93.22;36.40;;;;;;;7.11;76.79;99554.86;1673328;84;21194;-65
2021/03/15 10:12:23;;;;;;;88.83;37.03;;;;;;;7.14;76.60;99550.89;1686452;83;21484;-65
2021/03/15 10:15:29;;;;;;;90.32;36.73;;;;;;;7.14;76.41;99553.09;1691496;83;21366;-66
2021/03/15 10:18:39;;;;;;;;;;;;;;;7.10;76.29;99561.86;1682473;83;21945;-63
2021/03/15 10:21:08;;;;;;;203.75;68.45;;;;;;;7.10;76.43;99564.06;1694784;84;20288;-64
2021/03/15 10:23:40;;;;;;;138.37;51.85;;;;;;;7.10;76.30;99561.86;1682992;83;21228;-65
2021/03/15 10:26:15;;;;;;;228.18;75.05;;;;;;;7.08;76.22;99565.30;1689588;84;21414;-63
2021/03/15 10:28:52;;;;;;;121.65;47.23;;;;;;;7.06;76.18;99566.86;1657572;85;21566;-70
2021/03/15 10:31:22;;;;;;;118.30;47.67;;;;;;;7.06;76.17;99571.46;1688639;83;21892;-66
2021/03/15 10:33:50;;;;;;;134.18;51.65;;;;;;;7.06;76.25;99570.94;1695354;83;21688;-65
2021/03/15 10:36:20;;;;;;;86.47;34.85;;;;;;;7.05;76.20;99563.81;1691047;83;21565;-67
2021/03/15 10:39:06;;;;;;;88.52;35.00;;;;;;;7.04;76.19;99556.67;1679662;83;21852;-68
2021/03/15 10:41:40;;;;;;;84.17;33.98;;;;;;;7.04;76.28;99556.67;1722747;82;21156;-63
2021/03/15 10:44:11;;;;;;;96.10;42.80;;;;;;;7.05;76.23;99544.75;1676262;82;21761;-68
2021/03/15 10:46:53;;;;;;;90.17;37.93;;;;;;;7.08;76.25;99548.44;1711464;82;21932;-62
2021/03/15 10:49:25;;;;;;;117.85;52.10;;;;;;;7.08;76.23;99540.78;1683405;84;21431;-65
2021/03/15 10:51:55;;;;;;;93.90;44.53;;;;;;;7.11;76.21;99538.52;1688914;83;21704;-65
2021/03/15 10:54:32;;;;;;;98.42;39.18;;;;;;;7.14;76.10;99544.92;1706561;82;21212;-65
2021/03/15 10:57:21;;;;;;;81.92;34.00;;;;;;;7.17;76.07;99540.48;1677493;84;21982;-63
2021/03/15 10:59:56;;;;;;;76.45;34.92;;;;;;;7.20;76.02;99535.16;1680528;84;21184;-63
2021/03/15 11:02:35;;;;;;;61.80;29.55;;;;;;;7.14;75.90;99535.39;1704650;82;21344;-63
2021/03/15 11:05:17;;;;;;;66.12;32.65;;;;;;;7.13;76.02;99528.78;1670027;84;21971;-63
2021/03/15 11:07:50;;;;;;;78.95;37.15;;;;;;;7.14;76.17;99527.22;1683349;83;21502;-62
2021/03/15 11:10:26;;;;;;;70.92;33.08;;;;;;;7.19;76.17;99530.23;1679237;83;21937;-63
2021/03/15 11:13:01;;;;;;;111.57;41.37;;;;;;;7.17;75.98;99527.38;1672367;84;21311;-65
2021/03/15 11:15:38;;;;;;;123.45;45.52;;;;;;;7.12;75.92;99523.85;1665781;84;21202;-67
2021/03/15 11:18:19;;;;;;;123.43;53.27;;;;;;;7.08;76.01;99521.72;1698005;83;21252;-67
2021/03/15 11:20:54;;;;;;;86.45;41.88;;;;;;;7.04;76.12;99517.19;1695623;83;21413;-65
2021/03/15 11:23:32;;;;;;;72.50;34.33;;;;;;;6.99;76.28;99518.30;1689660;84;21162;-67
2021/03/15 11:26:10;;;;;;;61.50;30.05;;;;;;;6.89;76.47;99516.42;1710524;83;21438;-67
2021/03/15 11:28:43;;;;;;;65.03;31.62;;;;;;;6.78;76.66;99511.50;1690084;83;21880;-69
2021/03/15 11:31:15;;;;;;;62.20;31.05;;;;;;;6.67;76.99;99511.50;1680749;83;21855;-68
2021/03/15 11:33:54;;;;;;;57.03;29.75;;;;;;;6.62;77.41;99505.28;1699487;83;21211;-66
2021/03/15 11:36:37;;;;;;;45.23;22.75;;;;;;;6.60;77.71;99507.36;1699191;83;21141;-69
2021/03/15 11:39:08;;;;;;;48.48;25.23;;;;;;;6.61;77.94;99517.73;1697253;82;21430;-68
2021/03/15 11:41:40;;;;;;;47.58;24.72;;;;;;;6.56;78.34;99515.59;1701719;83;21220;-69
2021/03/15 11:44:08;;;;;;;46.05;21.17;;;;;;;6.61;79.05;99510.92;1673987;84;21247;-67
2021/03/15 11:46:38;;;;;;;42.13;20.15;;;;;;;6.73;79.36;99516.17;1677856;84;21132;-71
2021/03/15 11:49:07;;;;;;;34.78;19.00;;;;;;;6.80;79.35;99516.23;1716011;82;21168;-66
2021/03/15 11:51:54;;;;;;;39.42;22.80;;;;;;;6.86;78.93;99520.90;1687723;83;21323;-66
2021/03/15 11:54:23;;;;;;;59.98;33.73;;;;;;;6.90;78.96;99520.83;1689532;84;21307;-67
2021/03/15 11:56:54;;;;;;;59.35;31.33;;;;;;;6.94;78.65;99524.84;1697609;83;21856;-66
2021/03/15 11:59:22;;;;;;;39.58;20.05;;;;;;;6.96;78.32;99523.61;1719124;82;21151;-67
2021/03/15 12:01:51;;;;;;;52.65;26.87;;;;;;;6.95;78.04;99525.17;1714831;83;21167;-68
2021/03/15 12:04:20;;;;;;;41.13;23.90;;;;;;;6.87;77.60;99525.30;1711324;82;21133;-66
2021/03/15 12:06:55;;;;;;;52.58;30.82;;;;;;;6.82;77.56;99526.41;1711002;82;21272;-68
2021/03/15 12:09:31;;;;;;;43.23;23.02;;;;;;;6.78;77.79;99529.20;1685288;84;21216;-64
2021/03/15 12:12:00;;;;;;;41.10;20.85;;;;;;;6.76;77.95;99523.11;1678745;83;21543;-64
2021/03/15 12:14:31;;;;;;;36.77;18.70;;;;;;;6.77;78.04;99524.80;1694928;84;21929;-67
2021/03/15 12:17:00;;;;;;;38.75;18.62;;;;;;;6.79;78.11;99527.64;1720590;82;21188;-66
2021/03/15 12:19:28;;;;;;;25.32;13.20;;;;;;;6.82;78.07;99527.77;1698725;83;21397;-64
2021/03/15 12:21:58;;;;;;;34.08;18.15;;;;;;;6.82;77.95;99519.09;1691092;83;21354;-64
2021/03/15 12:24:45;;;;;;;51.73;26.85;;;;;;;6.82;77.83;99516.36;1702015;82;21172;-67
2021/03/15 12:27:49;;;;;;;35.63;17.12;;;;;;;6.83;77.79;99522.13;1690925;82;21191;-68
2021/03/15 12:30:31;;;;;;;27.67;12.98;;;;;;;6.83;77.36;99514.48;1698130;84;21196;-65
2021/03/15 12:33:04;;;;;;;33.70;17.70;;;;;;;6.80;77.04;99514.36;1693761;83;21284;-66
2021/03/15 12:35:35;;;;;;;28.05;15.40;;;;;;;6.79;77.09;99518.63;1710322;83;21268;-63
2021/03/15 12:38:03;;;;;;;23.47;12.55;;;;;;;6.81;77.19;99516.56;1683250;84;21161;-65
2021/03/15 12:40:34;;;;;;;21.15;12.00;;;;;;;6.82;77.27;99510.08;1694599;82;21163;-64
2021/03/15 12:43:05;;;;;;;22.85;11.93;;;;;;;6.84;77.26;99515.65;1692960;82;22054;-68
2021/03/15 12:45:40;;;;;;;20.97;9.90;;;;;;;6.83;77.15;99510.41;1660734;84;21409;-67
2021/03/15 12:48:19;;;;;;;21.05;11.22;;;;;;;6.85;77.23;99502.88;1699303;83;21231;-65
2021/03/15 12:50:49;;;;;;;23.83;12.68;;;;;;;6.86;77.47;99504.56;1694653;83;21194;-66
2021/03/15 12:53:17;;;;;;;24.20;12.23;;;;;;;6.91;77.54;99498.85;1673170;83;21273;-65
2021/03/15 12:55:48;;;;;;;29.30;15.20;;;;;;;6.93;77.47;99500.02;1672261;84;21327;-66
2021/03/15 12:58:17;;;;;;;29.50;16.27;;;;;;;6.94;77.30;99501.70;1674516;84;21555;-66
2021/03/15 13:00:46;;;;;;;29.60;13.80;;;;;;;6.93;77.04;99500.02;1682461;83;21164;-66
2021/03/15 13:03:23;;;;;;;25.10;13.25;;;;;;;6.95;77.17;99495.22;1675952;84;21254;-67
2021/03/15 13:05:51;;;;;;;24.27;13.25;;;;;;;6.98;77.14;99498.39;1633244;85;21368;-67
2021/03/15 13:08:27;;;;;;;24.03;12.33;;;;;;;7.02;77.07;99496.63;1670593;84;21966;-65
2021/03/15 13:10:58;;;;;;;38.73;19.05;;;;;;;7.02;77.18;99491.19;1613256;85;21439;-65
2021/03/15 13:13:30;;;;;;;44.18;19.67;;;;;;;7.00;77.26;99488.66;1671216;83;21194;-63
2021/03/15 13:16:06;;;;;;;49.88;23.20;;;;;;;7.01;77.43;99479.45;1689472;84;21936;-65
2021/03/15 13:18:35;;;;;;;48.42;20.35;;;;;;;7.05;77.39;99478.53;1652270;84;21145;-66
2021/03/15 13:21:15;;;;;;;50.55;23.22;;;;;;;7.06;77.52;99484.30;1652304;85;21441;-62
2021/03/15 13:23:46;;;;;;;61.23;25.35;;;;;;;7.02;77.37;99482.50;1668537;84;21411;-68
2021/03/15 13:26:33;;;;;;;60.25;26.73;;;;;;;6.96;77.46;99480.56;1693977;83;21149;-70
2021/03/15 13:29:09;;;;;;;59.50;24.70;;;;;;;6.97;77.62;99482.25;1693154;83;21825;-70
2021/03/15 13:31:38;;;;;;;57.88;23.52;;;;;;;6.98;77.54;99473.03;1662329;84;21346;-70
2021/03/15 13:34:09;;;;;;;52.78;23.18;;;;;;;7.02;77.51;99474.84;1672715;85;21379;-70
2021/03/15 13:36:49;;;;;;;54.58;24.32;;;;;;;7.04;77.35;99470.05;1680364;84;21169;-67
2021/03/15 13:42:53;;;;;;;38.42;17.67;;;;;;;7.03;77.41;99471.92;1694687;83;21329;-64
2021/03/15 13:45:42;;;;;;;46.50;20.25;;;;;;;7.06;77.40;99470.17;1683116;83;21172;-64
2021/03/15 13:48:35;;;;;;;36.95;17.65;;;;;;;7.04;77.41;99472.25;1683839;84;21309;-67
2021/03/15 13:51:15;;;;;;;37.58;17.60;;;;;;;7.03;77.29;99469.20;1683305;83;21895;-65
2021/03/15 13:53:51;;;;;;;23.07;12.03;;;;;;;7.01;77.26;99472.64;1686032;83;21176;-65
2021/03/15 13:56:22;;;;;;;38.13;15.83;;;;;;;6.94;77.25;99464.94;1674967;83;21186;-66
2021/03/15 13:58:59;;;;;;;33.75;15.80;;;;;;;6.89;77.47;99460.61;1687078;84;21191;-65
2021/03/15 14:01:38;;;;;;;32.65;16.48;;;;;;;6.89;77.65;99466.05;1657740;84;21169;-69
2021/03/15 14:04:17;;;;;;;33.15;16.52;;;;;;;6.87;77.69;99464.89;1685639;83;21160;-69
2021/03/15 14:07:08;;;;;;;35.13;16.95;;;;;;;6.84;77.66;99468.00;1688760;83;21205;-68
2021/03/15 14:09:48;;;;;;;31.20;16.48;;;;;;;6.82;77.79;99464.64;1682322;84;21197;-68
2021/03/15 14:12:37;;;;;;;28.67;14.23;;;;;;;6.81;77.85;99465.67;1716114;83;22099;-70
2021/03/15 14:15:28;;;;;;;34.20;15.53;;;;;;;6.82;77.78;99476.05;1675682;83;21914;-71
2021/03/15 14:18:36;;;;;;;32.70;17.20;;;;;;;6.82;77.78;99466.52;1681428;84;21311;-70
2021/03/15 14:21:45;;;;;;;32.65;17.07;;;;;;;6.82;77.96;99473.33;1687034;84;21189;-67
2021/03/15 14:24:14;;;;;;;35.20;17.10;;;;;;;6.82;78.00;99471.44;1682247;84;21312;-69
2021/03/15 14:26:44;;;;;;;38.73;18.87;;;;;;;6.84;78.05;99466.64;1682672;84;21186;-68
2021/03/15 14:29:11;;;;;;;37.63;17.73;;;;;;;6.85;78.00;99472.41;1686914;84;21915;-70
2021/03/15 14:31:43;;;;;;;40.35;18.30;;;;;;;6.86;77.99;99468.65;1690677;83;21187;-66
2021/03/15 14:34:28;;;;;;;41.70;18.25;;;;;;;6.88;77.96;99476.63;1708858;83;21456;-68
2021/03/15 14:36:58;;;;;;;49.77;23.22;;;;;;;6.91;78.02;99476.23;1705802;83;21342;-68
2021/03/15 14:39:25;;;;;;;59.95;26.37;;;;;;;6.92;78.11;99478.75;1690887;84;21411;-69
2021/03/15 14:41:54;;;;;;;50.95;23.35;;;;;;;6.95;78.11;99481.60;1690111;84;21855;-68
2021/03/15 14:44:23;;;;;;;46.48;19.82;;;;;;;6.91;77.84;99479.79;1675753;84;21336;-67
2021/03/15 14:46:55;;;;;;;35.80;16.77;;;;;;;6.83;77.87;99481.81;1684713;84;21259;-68
2021/03/15 14:49:27;;;;;;;40.05;18.70;;;;;;;6.77;77.99;99485.31;1685280;84;21317;-68
2021/03/15 14:51:55;;;;;;;42.17;18.87;;;;;;;6.74;78.18;99487.07;1699765;82;21231;-66
2021/03/15 14:54:25;;;;;;;43.58;19.98;;;;;;;6.70;78.36;99478.45;1678729;83;21349;-67
2021/03/15 14:57:00;;;;;;;42.20;19.00;;;;;;;6.72;78.72;99479.62;1682778;85;21178;-70
2021/03/15 14:59:33;;;;;;;45.98;17.90;;;;;;;6.72;78.81;99478.26;1709119;82;21422;-67
2021/03/15 15:02:01;;;;;;;44.20;19.10;;;;;;;6.71;78.98;99469.77;1697275;83;21212;-69
2021/03/15 15:04:32;;;;;;;42.17;17.92;;;;;;;6.70;79.07;99484.42;1678240;84;21506;-66
2021/03/15 15:07:00;;;;;;;46.75;19.92;;;;;;;6.72;79.28;99483.70;1673690;85;21496;-69
2021/03/15 15:09:31;;;;;;;42.83;17.85;;;;;;;6.70;79.26;99485.78;1702429;82;21804;-62
2021/03/15 15:12:04;;;;;;;41.92;17.48;;;;;;;6.68;79.41;99484.61;1673822;85;21275;-64
2021/03/15 15:14:35;;;;;;;41.75;17.25;;;;;;;6.66;79.33;99484.80;1669432;85;21662;-65
2021/03/15 15:17:04;;;;;;;36.53;16.27;;;;;;;6.62;79.49;99485.39;1699031;84;21708;-63
2021/03/15 15:19:33;;;;;;;41.18;16.97;;;;;;;6.62;79.63;99483.52;1699584;83;21510;-63
2021/03/15 15:22:04;;;;;;;42.45;17.05;;;;;;;6.62;79.62;99480.79;1674163;85;21381;-64
2021/03/15 15:24:33;;;;;;;45.78;20.37;;;;;;;6.61;79.74;99477.75;1711541;83;21956;-64
2021/03/15 15:27:00;;;;;;;42.62;18.75;;;;;;;6.61;79.91;99487.27;1677417;83;21401;-63
2021/03/15 15:29:28;;;;;;;41.18;17.67;;;;;;;6.63;80.01;99489.80;1686005;84;21376;-65
2021/03/15 15:31:55;;;;;;;42.17;17.55;;;;;;;6.61;79.93;99489.99;1709275;83;21190;-63
2021/03/15 15:34:23;;;;;;;41.28;16.12;;;;;;;6.60;79.97;99491.03;1714681;82;21218;-64
2021/03/15 15:36:50;;;;;;;43.70;17.92;;;;;;;6.61;79.98;99485.06;1688641;83;21174;-67
2021/03/15 15:39:19;;;;;;;46.00;19.07;;;;;;;6.60;79.99;99491.03;1702460;82;21192;-64
2021/03/15 15:41:46;;;;;;;38.45;16.85;;;;;;;6.54;79.81;99493.16;1714202;82;21174;-63
2021/03/15 15:44:13;;;;;;;47.33;18.67;;;;;;;6.49;79.94;99491.52;1711642;82;21160;-63
2021/03/15 15:46:42;;;;;;;45.00;17.15;;;;;;;6.43;79.97;99493.65;1730973;82;21137;-68
2021/03/15 15:49:10;;;;;;;66.15;18.98;;;;;;;6.42;80.23;99493.33;1715039;82;21953;-63
2021/03/15 15:51:37;;;;;;;50.20;20.25;;;;;;;6.46;80.42;99485.09;1698392;83;22004;-62
2021/03/15 15:54:07;;;;;;;52.98;20.75;;;;;;;6.48;80.42;99484.91;1694026;82;21958;-62
2021/03/15 15:56:36;;;;;;;45.78;18.37;;;;;;;6.52;80.49;99485.72;1719374;82;21154;-65
2021/03/15 15:59:04;;;;;;;44.23;16.93;;;;;;;6.52;80.45;99477.55;1715029;82;21175;-67
2021/03/15 16:01:40;;;;;;;44.80;18.70;;;;;;;6.48;80.12;99484.91;1711948;82;21214;-64
2021/03/15 16:04:22;;;;;;;45.67;18.42;;;;;;;6.37;80.20;99479.45;1710311;83;21921;-64
2021/03/15 16:07:16;;;;;;;51.28;20.17;;;;;;;6.36;80.34;99488.66;1701878;82;21186;-62
2021/03/15 16:10:43;;;;;;;47.80;21.10;;;;;;;6.32;80.49;99488.20;1704843;82;21148;-67
2021/03/15 16:13:59;;;;;;;51.10;19.57;;;;;;;6.33;80.70;99485.80;1698168;83;21305;-65
2021/03/15 16:16:26;;;;;;;50.40;19.50;;;;;;;6.36;80.70;99488.66;1688798;83;21923;-63
2021/03/15 16:18:56;;;;;;;46.35;19.37;;;;;;;6.35;80.70;99491.05;1715768;83;21151;-65
2021/03/15 16:21:24;;;;;;;49.13;20.97;;;;;;;6.38;80.83;99488.46;1703229;83;21567;-64
2021/03/15 16:23:52;;;;;;;51.53;20.77;;;;;;;6.38;80.86;99490.67;1690774;83;21193;-62
2021/03/15 16:26:19;;;;;;;48.13;19.62;;;;;;;6.41;80.88;99487.56;1683724;83;21187;-61
2021/03/15 16:28:48;;;;;;;50.65;20.37;;;;;;;6.42;80.81;99482.95;1679366;83;21888;-62
2021/03/15 16:31:17;;;;;;;57.40;24.15;;;;;;;6.43;80.79;99484.13;1686104;83;21422;-65
2021/03/15 16:33:46;;;;;;;53.70;22.27;;;;;;;6.45;80.75;99481.21;1689951;83;21266;-65
2021/03/15 16:36:16;;;;;;;55.95;24.50;;;;;;;6.42;80.68;99483.80;1675093;84;21274;-65